Meadows Field
KBFL : now visible

Airfield :











YOU CAN JOIN US ON...

 
LOGIN :

Register | Disclaimer

   EN    FR    IT 

 









Legend :    VFR   Marginal VFR   IFR   Intensive IFR   Very Intensive IFR
Visi :
Ceiling :
>= 8 km
>= 3000ft
5 to 8 km
1000 to 3000 ft
1500m to 5 km
500 to 1000 ft
800 to 1500m
200 to 500 ft
< 800m
< 200 ft
Symbols :   Thunderstorms  Fog  Heavy snow  Heavy precipitations  Wind > 20 kt






- Airport Elevation : 510 ft
- IATA code : BFL


KBFL - Meadows Field

CURRENT METAR :
  • 221154Z AUTO 00000KT 10SM CLR 16/06 A2977 RMK AO2 SLP076 T01610061 10217 20161 58003

EXPIRED METARs :
  • 221054Z AUTO 17003KT 10SM CLR 18/06 A2978 RMK AO2 SLP077 T01780061
  • 220954Z AUTO 09003KT 10SM CLR 18/06 A2978 RMK AO2 SLP079 T01830061

TAF KBFL
Valid from the 22 at 12:00 until the 23 at 12:00 UTC


221120Z 2212/2312 VRB04KT P6SM SKC
KZLA FIR / North America



MET'MAP, your aeronautical weather chart ! - Copyright ORBIFLY December 2007 - Disclaimer

ORBIFLY MET'MAP TEAM :

Programming & Development : Alexandra Zaïnal
Concept & original design : Baudouin d'Aumeries
Assistance for programming : Marc-Olivier Méhu
Technical & hardware support : Manuel Goepfert

Contact : metmap@orbifly.com




SOURCES & CREDITS :

   NOAA       Earth
Advisory